Terminal Aerodrome Forecast
Issued by NWS Melbourne, FL

Home | Current Version | Previous Version | Text Only | Print | Product List | Glossary On
Versions: 1 2 3 4 5 6 7 8 9 10 11 12 13 14 15 16 17 18 19 20
000
FTUS42 KMLB 051459 AAA
TAFVRB
TAF AMD
KVRB 051459Z 0515/0612 18011G18KT P6SM SCT025 BKN035
      TEMPO 0515/0517 BKN025
     FM060300 27007KT P6SM BKN035 OVC060
     FM061100 34005KT P6SM BKN020 OVC040=

USA.gov is the U.S. government's official web portal to all federal, state and local government web resources and services.